createdAt,value
2017-11-29T00:02:38.111Z,7.35
2017-11-29T00:05:48.597Z,7.25
2017-11-29T00:08:58.535Z,7.47
2017-11-29T00:12:09.040Z,8.25
2017-11-29T00:15:19.209Z,6.55
2017-11-29T00:18:29.480Z,6.40
2017-11-29T00:21:39.428Z,8.18
2017-11-29T00:24:49.169Z,7.03
2017-11-29T00:27:59.568Z,8.43
2017-11-29T00:31:09.586Z,7.57
2017-11-29T00:34:20.173Z,5.80
2017-11-29T00:37:29.550Z,6.35
2017-11-29T00:40:39.528Z,7.00
2017-11-29T00:43:49.563Z,8.15
2017-11-29T00:46:59.361Z,7.30
2017-11-29T00:50:09.419Z,7.78
2017-11-29T00:53:19.980Z,7.87
2017-11-29T00:56:30.099Z,6.00
2017-11-29T00:59:39.843Z,6.78
2017-11-29T01:02:49.356Z,7.62
2017-11-29T01:05:59.323Z,7.97
2017-11-29T01:09:09.069Z,8.50
2017-11-29T01:12:18.887Z,6.60
2017-11-29T01:15:29.556Z,7.30
2017-11-29T01:18:39.333Z,6.53
2017-11-29T01:21:49.125Z,7.50
2017-11-29T01:24:58.839Z,6.82
2017-11-29T01:28:09.419Z,6.35
2017-11-29T01:31:19.577Z,8.10
2017-11-29T01:34:29.544Z,7.40
2017-11-29T01:37:39.428Z,7.87
2017-11-29T01:40:49.815Z,6.45
2017-11-29T01:44:00.647Z,7.22
2017-11-29T01:47:11.532Z,9.40
2017-11-29T01:50:22.120Z,6.57
2017-11-29T01:53:31.853Z,7.55
2017-11-29T01:56:41.655Z,10.50
2017-11-29T01:59:52.305Z,7.85
2017-11-29T02:03:02.488Z,6.68
2017-11-29T02:06:23.768Z,8.07
2017-11-29T02:09:34.446Z,8.40
2017-11-29T02:12:44.743Z,6.35
2017-11-29T02:15:54.929Z,8.13
2017-11-29T02:19:04.710Z,8.18
2017-11-29T02:22:14.305Z,6.65
2017-11-29T02:25:24.245Z,9.32
2017-11-29T02:28:34.733Z,8.20
2017-11-29T02:31:44.409Z,7.35
2017-11-29T02:34:54.436Z,5.80
2017-11-29T02:38:04.604Z,7.30
2017-11-29T02:44:54.912Z,7.72
2017-11-29T02:48:05.995Z,7.12
2017-11-29T02:51:16.597Z,6.90
2017-11-29T02:54:27.666Z,7.25
2017-11-29T02:57:37.680Z,7.35
2017-11-29T03:00:48.093Z,6.80
2017-11-29T03:03:57.833Z,6.95
2017-11-29T03:07:08.277Z,7.68
2017-11-29T03:10:18.308Z,5.85
2017-11-29T03:13:28.756Z,7.50
2017-11-29T03:16:38.634Z,6.57
2017-11-29T03:19:48.459Z,6.78
2017-11-29T03:22:58.487Z,7.72
2017-11-29T03:26:08.637Z,7.00
2017-11-29T03:29:18.379Z,8.15
2017-11-29T03:32:28.911Z,7.18
2017-11-29T03:35:38.660Z,9.30
2017-11-29T03:38:48.801Z,7.37
2017-11-29T03:41:59.861Z,7.72
2017-11-29T03:45:09.754Z,7.32
2017-11-29T03:48:19.853Z,8.75
2017-11-29T03:51:30.464Z,7.30
2017-11-29T03:54:40.662Z,8.38
2017-11-29T03:57:50.824Z,8.30
2017-11-29T04:01:01.532Z,7.37
2017-11-29T04:04:11.587Z,6.12
2017-11-29T04:07:22.652Z,7.78
2017-11-29T04:10:32.609Z,8.05
2017-11-29T04:13:42.463Z,8.05
2017-11-29T04:16:52.667Z,8.75
2017-11-29T04:20:04.077Z,10.13
2017-11-29T04:23:14.309Z,8.68
2017-11-29T04:26:24.216Z,6.82
2017-11-29T04:29:35.281Z,7.47
2017-11-29T04:32:45.077Z,8.40
2017-11-29T04:35:55.560Z,5.97
2017-11-29T04:39:04.871Z,11.40
2017-11-29T04:42:15.180Z,7.85
2017-11-29T04:45:25.859Z,7.95
2017-11-29T04:48:36.586Z,8.20
2017-11-29T04:51:46.740Z,6.95
2017-11-29T04:54:56.858Z,6.55
2017-11-29T04:58:07.696Z,9.02
2017-11-29T05:01:17.335Z,8.57
2017-11-29T05:04:27.217Z,9.15
2017-11-29T05:07:36.956Z,7.18
2017-11-29T05:10:46.798Z,8.02
2017-11-29T05:13:57.035Z,6.28
2017-11-29T05:17:07.529Z,7.30
2017-11-29T05:20:17.493Z,8.30
2017-11-29T05:23:27.175Z,7.68
2017-11-29T05:26:36.733Z,7.37
2017-11-29T05:29:46.503Z,8.30
2017-11-29T05:32:57.093Z,8.05
2017-11-29T05:36:08.119Z,9.63
2017-11-29T05:39:18.035Z,8.82
2017-11-29T05:42:27.966Z,6.30
2017-11-29T05:45:38.229Z,7.80
2017-11-29T05:48:48.277Z,9.18
2017-11-29T05:51:57.959Z,8.48
2017-11-29T05:55:07.741Z,7.93
2017-11-29T05:58:18.133Z,9.05
2017-11-29T06:01:28.929Z,11.25
2017-11-29T06:04:38.850Z,9.30
2017-11-29T06:07:48.503Z,8.30
2017-11-29T06:10:58.341Z,10.63
2017-11-29T06:14:08.591Z,8.30
2017-11-29T06:17:18.512Z,9.38
2017-11-29T06:20:28.883Z,9.00
2017-11-29T06:23:38.684Z,8.88
2017-11-29T06:26:50.098Z,8.65
2017-11-29T06:30:00.044Z,8.45
2017-11-29T06:33:09.802Z,8.52
2017-11-29T06:36:19.801Z,7.07
2017-11-29T06:39:30.451Z,10.20
2017-11-29T06:42:40.518Z,8.25
2017-11-29T06:45:50.278Z,8.50
2017-11-29T06:49:00.063Z,7.35
2017-11-29T06:52:10.009Z,6.80
2017-11-29T06:55:19.750Z,7.93
2017-11-29T06:58:29.566Z,7.30
2017-11-29T07:01:39.623Z,13.88
2017-11-29T07:04:49.647Z,10.10
2017-11-29T07:07:59.715Z,7.28
2017-11-29T07:11:09.617Z,7.43
2017-11-29T07:14:19.755Z,6.47
2017-11-29T07:17:30.396Z,5.55
2017-11-29T07:20:40.256Z,12.25
2017-11-29T07:23:50.535Z,24.48
2017-11-29T07:27:01.192Z,17.25
2017-11-29T07:30:11.575Z,26.50
2017-11-29T07:33:21.339Z,66.68
2017-11-29T07:36:32.797Z,84.28
2017-11-29T07:39:42.650Z,52.05
2017-11-29T07:42:52.520Z,29.98
2017-11-29T07:46:02.244Z,35.10
2017-11-29T07:49:12.163Z,21.12
2017-11-29T07:52:22.016Z,13.05
2017-11-29T07:55:31.910Z,20.20
2017-11-29T07:58:41.982Z,11.25
2017-11-29T08:01:51.835Z,18.27
2017-11-29T08:05:02.020Z,15.63
2017-11-29T08:08:11.875Z,17.20
2017-11-29T08:11:22.439Z,15.65
2017-11-29T08:14:32.619Z,12.52
2017-11-29T08:17:42.402Z,10.05
2017-11-29T08:20:52.649Z,7.82
2017-11-29T08:24:02.349Z,8.40
2017-11-29T08:27:12.087Z,7.18
2017-11-29T08:30:22.337Z,8.50
2017-11-29T08:33:32.851Z,9.45
2017-11-29T08:36:42.977Z,8.75
2017-11-29T08:39:52.720Z,9.02
2017-11-29T08:43:02.930Z,10.10
2017-11-29T08:46:13.334Z,7.40
2017-11-29T08:49:23.302Z,9.93
2017-11-29T08:52:33.414Z,8.38
2017-11-29T08:55:42.845Z,9.63
2017-11-29T08:58:53.155Z,8.60
2017-11-29T09:02:03.022Z,8.35
2017-11-29T09:05:12.467Z,8.57
2017-11-29T09:08:22.939Z,8.32
2017-11-29T09:11:33.312Z,9.30
2017-11-29T09:14:42.899Z,9.10
2017-11-29T09:17:52.592Z,9.65
2017-11-29T09:21:03.433Z,9.93
2017-11-29T09:24:14.339Z,8.23
2017-11-29T09:27:23.836Z,9.10
2017-11-29T09:30:33.927Z,9.30
2017-11-29T09:33:43.674Z,6.82
2017-11-29T09:36:54.187Z,10.73
2017-11-29T09:40:03.655Z,8.50
2017-11-29T09:43:13.952Z,7.60
2017-11-29T09:46:23.735Z,7.95
2017-11-29T09:49:34.569Z,8.15
2017-11-29T09:52:44.779Z,8.32
2017-11-29T09:55:54.270Z,7.18
2017-11-29T09:59:03.954Z,8.10
2017-11-29T10:02:14.043Z,10.20
2017-11-29T10:05:24.052Z,10.73
2017-11-29T10:08:33.667Z,11.43
2017-11-29T10:11:43.604Z,11.57
2017-11-29T10:14:53.250Z,10.75
2017-11-29T10:18:03.302Z,10.52
2017-11-29T10:21:13.707Z,14.10
2017-11-29T10:24:23.992Z,11.60
2017-11-29T10:27:34.749Z,11.55
2017-11-29T10:30:45.176Z,8.43
2017-11-29T10:33:54.647Z,10.50
2017-11-29T10:37:04.030Z,11.10
2017-11-29T10:40:13.687Z,13.02
2017-11-29T10:43:23.689Z,8.00
2017-11-29T10:46:33.638Z,8.50
2017-11-29T10:49:43.184Z,9.10
2017-11-29T10:52:53.201Z,10.07
2017-11-29T10:56:03.013Z,9.90
2017-11-29T10:59:12.470Z,8.13
2017-11-29T11:02:22.141Z,10.40
2017-11-29T11:05:32.252Z,10.00
2017-11-29T11:08:42.552Z,11.55
2017-11-29T11:11:52.343Z,7.95
2017-11-29T11:15:01.996Z,10.15
2017-11-29T11:18:12.612Z,9.63
2017-11-29T11:21:23.233Z,10.05
2017-11-29T11:24:33.117Z,8.63
2017-11-29T11:27:42.788Z,8.48
2017-11-29T11:30:53.199Z,11.05
2017-11-29T11:34:03.381Z,10.00
2017-11-29T11:37:13.004Z,12.52
2017-11-29T11:40:23.039Z,57.50
2017-11-29T11:43:33.981Z,18.02
2017-11-29T11:46:44.547Z,9.95
2017-11-29T11:49:54.934Z,19.10
2017-11-29T11:53:04.802Z,9.70
2017-11-29T11:56:15.167Z,27.17
2017-11-29T11:59:24.983Z,16.62
2017-11-29T12:02:34.965Z,6.95
2017-11-29T12:05:45.580Z,6.57
2017-11-29T12:08:55.997Z,5.97
2017-11-29T12:12:06.284Z,7.87
2017-11-29T12:15:17.080Z,6.22
2017-11-29T12:18:27.234Z,7.50
2017-11-29T12:21:37.077Z,7.70
2017-11-29T12:24:46.867Z,7.32
2017-11-29T12:27:57.661Z,6.00
2017-11-29T12:31:08.101Z,6.47
2017-11-29T12:34:18.669Z,5.93
2017-11-29T12:37:28.452Z,6.55
2017-11-29T12:40:38.930Z,7.72
2017-11-29T12:43:48.913Z,7.47
2017-11-29T12:46:59.472Z,8.27
2017-11-29T12:50:21.022Z,5.35
2017-11-29T12:53:31.053Z,6.47
2017-11-29T12:56:40.483Z,6.93
2017-11-29T12:59:51.873Z,5.43
2017-11-29T13:03:01.788Z,6.35
2017-11-29T13:06:11.639Z,7.28
2017-11-29T13:09:22.495Z,6.68
2017-11-29T13:12:32.486Z,7.00
2017-11-29T13:15:42.150Z,5.45
2017-11-29T13:18:52.875Z,7.25
2017-11-29T13:22:02.979Z,6.90
2017-11-29T13:25:12.798Z,6.07
2017-11-29T13:28:22.686Z,8.98
2017-11-29T13:31:32.417Z,6.90
2017-11-29T13:34:43.833Z,5.95
2017-11-29T13:37:53.689Z,5.20
2017-11-29T13:41:03.364Z,6.90
2017-11-29T13:44:13.006Z,6.40
2017-11-29T13:47:23.492Z,5.22
2017-11-29T13:50:33.408Z,6.10
2017-11-29T13:53:43.335Z,6.37
2017-11-29T13:56:53.175Z,6.45
2017-11-29T14:00:02.912Z,5.25
2017-11-29T14:03:12.773Z,5.90
2017-11-29T14:06:21.981Z,5.30
2017-11-29T14:09:32.212Z,7.25
2017-11-29T14:12:42.223Z,5.65
2017-11-29T14:15:53.696Z,5.95
2017-11-29T14:19:03.519Z,6.05
2017-11-29T14:22:14.444Z,6.60
2017-11-29T14:25:25.072Z,7.28
2017-11-29T14:28:35.775Z,6.30
2017-11-29T14:31:45.857Z,7.65
2017-11-29T14:34:56.156Z,6.50
2017-11-29T14:38:05.640Z,5.68
2017-11-29T14:41:15.551Z,4.78
2017-11-29T14:44:25.876Z,6.40
2017-11-29T14:47:36.551Z,7.72
2017-11-29T14:50:48.012Z,7.35
2017-11-29T14:53:58.059Z,8.18
2017-11-29T14:57:08.645Z,7.35
2017-11-29T15:00:19.165Z,6.78
2017-11-29T15:03:30.106Z,5.70
2017-11-29T15:06:41.140Z,5.95
2017-11-29T15:09:51.813Z,6.12
2017-11-29T15:13:02.124Z,5.97
2017-11-29T15:16:12.757Z,8.70
2017-11-29T15:19:22.932Z,8.45
2017-11-29T15:22:32.635Z,6.70
2017-11-29T15:25:42.386Z,6.62
2017-11-29T15:28:53.024Z,6.80
2017-11-29T15:32:02.601Z,5.65
2017-11-29T15:35:12.463Z,6.03
2017-11-29T15:38:22.701Z,7.50
2017-11-29T15:41:33.251Z,5.53
2017-11-29T15:44:45.355Z,5.80
2017-11-29T15:47:55.624Z,6.45
2017-11-29T15:51:05.167Z,25.30
2017-11-29T15:54:15.588Z,21.42
2017-11-29T15:57:25.600Z,12.80
2017-11-29T16:00:35.842Z,12.85
2017-11-29T16:03:46.385Z,8.90
2017-11-29T16:06:56.196Z,8.57
2017-11-29T16:10:06.265Z,9.10
2017-11-29T16:13:16.736Z,10.20
2017-11-29T16:16:27.500Z,11.85
2017-11-29T16:19:37.915Z,10.13
2017-11-29T16:22:47.606Z,8.30
2017-11-29T16:25:57.518Z,9.23
2017-11-29T16:29:07.497Z,10.35
2017-11-29T16:32:18.133Z,11.02
2017-11-29T16:35:28.036Z,10.10
2017-11-29T16:38:38.021Z,9.73
2017-11-29T16:41:48.366Z,8.48
2017-11-29T16:44:58.035Z,7.07
2017-11-29T16:48:07.879Z,9.45
2017-11-29T16:51:17.761Z,7.22
2017-11-29T16:54:28.439Z,6.55
2017-11-29T16:57:39.367Z,6.40
2017-11-29T17:00:49.555Z,10.07
2017-11-29T17:03:59.927Z,8.00
2017-11-29T17:07:10.402Z,11.88
2017-11-29T17:10:21.041Z,15.35
2017-11-29T17:13:31.594Z,9.10
2017-11-29T17:16:41.451Z,8.57
2017-11-29T17:19:51.184Z,8.27
2017-11-29T17:23:01.740Z,7.68
2017-11-29T17:26:12.416Z,7.35
2017-11-29T17:29:22.345Z,8.43
2017-11-29T17:32:32.864Z,8.90
2017-11-29T17:35:43.081Z,10.52
2017-11-29T17:38:53.004Z,8.60
2017-11-29T17:42:02.972Z,10.32
2017-11-29T17:45:12.791Z,9.40
2017-11-29T17:48:22.589Z,9.60
2017-11-29T17:51:32.319Z,8.90
2017-11-29T17:54:42.554Z,9.25
2017-11-29T17:57:52.964Z,8.27
2017-11-29T18:01:03.568Z,8.88
2017-11-29T18:04:13.387Z,8.05
2017-11-29T18:07:24.310Z,7.97
2017-11-29T18:10:35.163Z,8.30
2017-11-29T18:13:46.237Z,8.40
2017-11-29T18:20:12.071Z,9.68
2017-11-29T18:23:23.248Z,8.60
2017-11-29T18:26:34.150Z,7.72
2017-11-29T18:29:44.182Z,8.35
2017-11-29T18:32:54.894Z,10.52
2017-11-29T18:36:05.780Z,9.77
2017-11-29T18:39:15.809Z,8.80
2017-11-29T18:42:25.516Z,8.68
2017-11-29T18:45:35.218Z,9.68
2017-11-29T18:48:45.838Z,9.40
2017-11-29T18:51:56.553Z,6.90
2017-11-29T18:55:08.038Z,11.60
2017-11-29T18:58:18.573Z,8.65
2017-11-29T19:01:28.643Z,10.10
2017-11-29T19:04:38.604Z,8.25
2017-11-29T19:07:48.526Z,8.93
2017-11-29T19:10:58.724Z,7.75
2017-11-29T19:14:08.576Z,7.30
2017-11-29T19:17:18.270Z,10.63
2017-11-29T19:20:28.123Z,8.70
2017-11-29T19:23:39.015Z,8.23
2017-11-29T19:26:49.204Z,11.30
2017-11-29T19:29:58.901Z,7.22
2017-11-29T19:33:09.156Z,6.53
2017-11-29T19:36:19.148Z,8.40
2017-11-29T19:39:29.725Z,8.80
2017-11-29T19:42:39.833Z,9.48
2017-11-29T19:45:50.464Z,9.32
2017-11-29T19:49:00.253Z,9.40
2017-11-29T19:52:10.091Z,7.12
2017-11-29T19:55:19.905Z,10.25
2017-11-29T19:58:29.553Z,8.13
2017-11-29T20:01:40.261Z,8.50
2017-11-29T20:04:50.344Z,9.75
2017-11-29T20:08:00.455Z,9.15
2017-11-29T20:11:10.839Z,8.48
2017-11-29T20:14:21.096Z,9.77
2017-11-29T20:17:31.101Z,9.02
2017-11-29T20:20:41.057Z,9.00
2017-11-29T20:23:50.837Z,9.52
2017-11-29T20:27:00.871Z,9.35
2017-11-29T20:30:11.042Z,8.68
2017-11-29T20:33:21.206Z,10.80
2017-11-29T20:36:31.274Z,9.48
2017-11-29T20:39:41.675Z,11.52
2017-11-29T20:42:52.156Z,10.45
2017-11-29T20:46:02.046Z,9.82
2017-11-29T20:49:12.067Z,9.52
2017-11-29T20:52:33.006Z,9.80
2017-11-29T20:55:43.478Z,9.85
2017-11-29T20:58:53.333Z,10.90
2017-11-29T21:02:03.136Z,8.55
2017-11-29T21:05:12.884Z,11.05
2017-11-29T21:08:22.293Z,10.88
2017-11-29T21:11:32.282Z,12.57
2017-11-29T21:14:42.543Z,10.00
2017-11-29T21:17:52.211Z,9.98
2017-11-29T21:21:03.814Z,10.63
2017-11-29T21:24:14.667Z,9.10
2017-11-29T21:27:25.254Z,10.25
2017-11-29T21:30:35.887Z,10.88
2017-11-29T21:33:47.598Z,9.18
2017-11-29T21:36:58.335Z,11.15
2017-11-29T21:40:08.213Z,10.18
2017-11-29T21:43:18.153Z,12.20
2017-11-29T21:46:27.962Z,11.55
2017-11-29T21:49:37.723Z,11.05
2017-11-29T21:52:47.746Z,10.98
2017-11-29T21:55:57.935Z,14.20
2017-11-29T21:59:07.661Z,11.38
2017-11-29T22:02:17.782Z,11.07
2017-11-29T22:05:28.340Z,10.85
2017-11-29T22:08:38.611Z,11.57
2017-11-29T22:11:49.288Z,10.80
2017-11-29T22:14:59.372Z,9.98
2017-11-29T22:18:09.255Z,9.93
2017-11-29T22:21:19.712Z,12.37
2017-11-29T22:24:30.293Z,9.57
2017-11-29T22:27:40.248Z,10.75
2017-11-29T22:30:49.747Z,13.00
2017-11-29T22:34:00.023Z,13.45
2017-11-29T22:37:10.039Z,11.60
2017-11-29T22:40:19.977Z,11.65
2017-11-29T22:43:30.071Z,13.05
2017-11-29T22:46:40.127Z,10.82
2017-11-29T22:49:50.461Z,9.60
2017-11-29T22:53:00.666Z,9.65
2017-11-29T22:56:10.795Z,11.85
2017-11-29T22:59:20.688Z,11.43
2017-11-29T23:02:30.913Z,11.73
2017-11-29T23:05:40.730Z,10.30
2017-11-29T23:08:50.632Z,9.98
2017-11-29T23:12:00.648Z,11.02
2017-11-29T23:15:10.714Z,12.85
2017-11-29T23:18:20.642Z,11.85
2017-11-29T23:21:30.306Z,10.63
2017-11-29T23:24:40.412Z,13.20
2017-11-29T23:27:50.163Z,11.57
2017-11-29T23:31:00.239Z,9.98
2017-11-29T23:34:10.589Z,9.85
2017-11-29T23:37:20.585Z,11.10
2017-11-29T23:40:30.653Z,10.13
2017-11-29T23:43:40.553Z,9.48
2017-11-29T23:46:51.182Z,11.77
2017-11-29T23:50:01.251Z,11.20
2017-11-29T23:53:11.186Z,11.85
2017-11-29T23:56:21.238Z,10.35
2017-11-29T23:59:31.876Z,11.75
